Time;durP1;ratioP1;P1;durP2;ratioP2;P2;SDS_P1;SDS_P2;PMS_P1;PMS_P2;Temp;Humidity;BMP_temperature;BMP_pressure;BME280_temperature;BME280_humidity;BME280_pressure;Samples;Min_cycle;Max_cycle;Signal;HPM_P1;HPM_P2
2021/12/04 00:02:04;;;;;;;132.20;36.70;;;3.80;99.90;;;;;;5070654;28;20065;-52
2021/12/04 00:04:34;;;;;;;119.07;35.40;;;3.90;99.90;;;;;;5070428;28;20048;-53
2021/12/04 00:06:59;;;;;;;125.53;33.97;;;3.70;99.90;;;;;;5070712;28;20053;-53
2021/12/04 00:09:25;;;;;;;140.82;38.00;;;3.10;99.90;;;;;;5070965;28;20123;-53
2021/12/04 00:11:54;;;;;;;150.52;38.58;;;3.90;99.90;;;;;;5070654;28;20046;-53
2021/12/04 00:14:20;;;;;;;125.93;37.70;;;3.90;99.90;;;;;;5070524;28;20044;-49
2021/12/04 00:16:46;;;;;;;162.85;42.30;;;3.90;99.90;;;;;;5070505;28;20040;-51
2021/12/04 00:19:12;;;;;;;145.57;38.58;;;3.90;99.90;;;;;;5070722;28;20397;-54
2021/12/04 00:21:38;;;;;;;152.13;41.15;;;3.90;99.90;;;;;;5070269;28;20048;-53
2021/12/04 00:24:04;;;;;;;134.52;37.70;;;3.90;99.90;;;;;;5069926;28;20132;-50
2021/12/04 00:26:30;;;;;;;141.52;37.33;;;3.90;99.90;;;;;;5068850;28;20051;-54
2021/12/04 00:28:56;;;;;;;156.93;39.90;;;3.90;99.90;;;;;;5070322;28;20040;-53
2021/12/04 00:31:22;;;;;;;141.40;40.67;;;5.20;99.90;;;;;;5069682;28;20521;-53
2021/12/04 00:33:49;;;;;;;143.43;40.30;;;3.90;99.90;;;;;;5069955;28;20044;-54
2021/12/04 00:49:57;;;;;;;143.68;38.47;;;3.90;99.90;;;;;;5070239;28;20072;-54
2021/12/04 00:52:23;;;;;;;132.07;38.25;;;3.90;99.90;;;;;;5069768;28;20045;-52
2021/12/04 00:54:49;;;;;;;124.82;36.03;;;3.90;99.90;;;;;;5069851;28;20394;-53
2021/12/04 00:57:15;;;;;;;150.18;39.50;;;4.30;99.90;;;;;;5069507;28;20040;-50
2021/12/04 00:59:41;;;;;;;143.73;38.75;;;3.80;99.90;;;;;;5068666;28;20076;-53
2021/12/04 01:02:07;;;;;;;139.57;36.80;;;3.90;99.90;;;;;;5069044;28;20052;-50
2021/12/04 01:04:33;;;;;;;165.77;42.65;;;3.90;99.90;;;;;;5069488;28;20097;-54
2021/12/04 01:06:59;;;;;;;133.57;38.00;;;3.90;99.90;;;;;;5069249;28;20490;-53
2021/12/04 01:09:25;;;;;;;137.20;36.47;;;3.90;99.90;;;;;;5068998;28;20047;-49
2021/12/04 01:11:52;;;;;;;145.07;37.42;;;3.70;99.90;;;;;;5051201;28;20051;-51
2021/12/04 01:14:22;;;;;;;144.15;39.15;;;3.90;99.90;;;;;;5068928;28;20536;-49
2021/12/04 01:16:48;;;;;;;140.82;35.85;;;3.90;99.90;;;;;;5069227;28;20494;-52
2021/12/04 01:19:14;;;;;;;142.18;36.55;;;4.50;99.90;;;;;;5069090;28;20037;-52
2021/12/04 01:21:42;;;;;;;148.32;37.20;;;3.70;99.90;;;;;;5069288;28;20097;-53
2021/12/04 01:24:08;;;;;;;174.38;38.83;;;3.90;99.90;;;;;;5068824;28;20090;-53
2021/12/04 01:26:33;;;;;;;143.02;37.10;;;3.90;99.90;;;;;;5069165;28;20063;-54
2021/12/04 01:29:00;;;;;;;150.07;38.13;;;3.90;99.90;;;;;;5069363;28;20398;-52
2021/12/04 01:31:26;;;;;;;159.73;38.63;;;3.90;99.90;;;;;;5069143;28;20047;-53
2021/12/04 01:33:52;;;;;;;171.30;40.13;;;3.90;99.90;;;;;;5069041;28;20044;-53
2021/12/04 01:36:18;;;;;;;156.52;39.50;;;3.90;99.90;;;;;;5068624;28;20051;-51
2021/12/04 01:38:43;;;;;;;134.60;35.95;;;3.90;99.90;;;;;;5068581;28;20041;-53
2021/12/04 01:41:09;;;;;;;155.52;38.67;;;3.90;99.90;;;;;;5050692;28;20101;-54
2021/12/04 01:43:35;;;;;;;141.55;37.58;;;3.90;99.90;;;;;;5049844;28;20059;-53
2021/12/04 01:46:01;;;;;;;141.75;36.33;;;3.60;99.90;;;;;;5068655;28;20050;-51
2021/12/04 01:48:27;;;;;;;169.38;38.80;;;5.00;99.90;;;;;;5068082;28;20044;-53
2021/12/04 01:50:54;;;;;;;143.38;35.63;;;3.90;99.90;;;;;;5050535;28;20044;-51
2021/12/04 01:53:20;;;;;;;123.85;34.97;;;3.70;99.90;;;;;;5068307;28;20060;-49
2021/12/04 01:55:46;;;;;;;115.05;32.90;;;3.90;99.90;;;;;;5068598;28;20032;-53
2021/12/04 01:58:13;;;;;;;127.60;34.45;;;3.90;99.90;;;;;;5068461;28;20047;-51
2021/12/04 02:00:41;;;;;;;129.02;34.35;;;3.80;99.90;;;;;;5066670;28;20040;-53
2021/12/04 02:03:08;;;;;;;124.53;34.33;;;3.90;99.90;;;;;;5068718;28;20040;-52
2021/12/04 02:05:40;;;;;;;122.63;33.67;;;3.90;99.90;;;;;;5067984;28;20051;-54
2021/12/04 02:08:11;;;;;;;117.22;34.25;;;3.90;99.90;;;;;;5068775;28;20041;-54
2021/12/04 02:10:37;;;;;;;98.95;31.42;;;3.90;99.90;;;;;;5068286;28;20572;-53
2021/12/04 02:13:03;;;;;;;119.65;34.00;;;4.70;99.90;;;;;;5068400;28;20083;-52
2021/12/04 02:15:29;;;;;;;95.10;32.53;;;3.90;99.90;;;;;;5067923;28;20041;-53
2021/12/04 02:17:56;;;;;;;100.45;33.38;;;3.90;99.90;;;;;;5067986;28;20043;-52
2021/12/04 02:20:24;;;;;;;124.78;36.00;;;3.90;99.90;;;;;;5068044;28;20048;-51
2021/12/04 02:22:51;;;;;;;92.80;31.25;;;4.50;99.90;;;;;;5049733;28;20066;-53
2021/12/04 02:25:17;;;;;;;116.60;35.78;;;3.90;99.90;;;;;;5067902;28;20490;-49
2021/12/04 02:27:44;;;;;;;95.05;32.47;;;3.90;99.90;;;;;;5067941;28;20059;-54
2021/12/04 02:30:14;;;;;;;83.80;30.70;;;3.90;99.90;;;;;;5067923;28;20502;-53
2021/12/04 02:32:40;;;;;;;98.68;31.92;;;3.90;99.90;;;;;;5067472;28;20118;-54
2021/12/04 02:35:08;;;;;;;88.65;32.60;;;3.90;99.90;;;;;;5068053;28;20109;-53
2021/12/04 02:37:35;;;;;;;111.65;34.78;;;3.90;99.90;;;;;;5067924;28;20051;-54
2021/12/04 02:40:03;;;;;;;98.03;33.30;;;3.90;99.90;;;;;;5068085;28;20079;-53
2021/12/04 02:42:30;;;;;;;87.45;30.67;;;3.90;99.90;;;;;;5067794;28;20508;-52
2021/12/04 02:44:58;;;;;;;98.78;32.17;;;3.90;99.90;;;;;;5067659;28;20307;-54
2021/12/04 02:47:25;;;;;;;93.28;33.67;;;3.90;99.90;;;;;;5067754;28;20055;-53
2021/12/04 02:49:50;;;;;;;100.97;33.70;;;3.90;99.90;;;;;;5067934;28;20756;-52
2021/12/04 02:52:17;;;;;;;107.45;33.95;;;3.90;99.90;;;;;;5068128;28;20123;-48
2021/12/04 02:54:43;;;;;;;88.72;33.88;;;3.90;99.90;;;;;;5067722;28;20406;-53
2021/12/04 02:57:12;;;;;;;98.55;31.73;;;3.70;99.90;;;;;;5068000;28;20044;-53
2021/12/04 02:59:39;;;;;;;86.07;28.38;;;3.90;99.90;;;;;;5066841;28;20048;-52
2021/12/04 03:02:17;;;;;;;92.45;31.88;;;3.90;99.90;;;;;;5047428;28;20491;-50
2021/12/04 03:04:47;;;;;;;79.85;31.73;;;3.90;99.90;;;;;;5047486;28;20462;-52
2021/12/04 03:07:13;;;;;;;88.97;31.98;;;3.90;99.90;;;;;;5047740;28;20041;-52
2021/12/04 03:09:39;;;;;;;78.72;30.60;;;3.90;99.90;;;;;;5047883;28;20041;-52
2021/12/04 03:12:06;;;;;;;80.88;28.63;;;3.90;99.90;;;;;;5047444;28;20052;-49
2021/12/04 03:14:32;;;;;;;74.25;28.60;;;3.90;99.90;;;;;;5047260;28;20040;-53
2021/12/04 03:16:58;;;;;;;77.88;28.42;;;3.90;99.90;;;;;;5047834;28;20509;-52
2021/12/04 03:19:25;;;;;;;74.38;27.50;;;3.90;99.90;;;;;;5047542;28;20041;-50
2021/12/04 03:21:51;;;;;;;88.32;29.35;;;3.80;99.90;;;;;;5047372;28;20402;-50
2021/12/04 03:24:18;;;;;;;79.00;28.42;;;3.80;99.90;;;;;;5047282;28;20502;-49
2021/12/04 03:26:46;;;;;;;82.00;28.73;;;3.80;99.90;;;;;;5046878;28;20157;-54
2021/12/04 03:29:18;;;;;;;72.75;27.48;;;3.80;99.90;;;;;;5047223;28;20095;-54
2021/12/04 03:42:30;;;;;;;60.60;23.73;;;3.80;99.90;;;;;;5047193;28;20045;-53
2021/12/04 03:44:55;;;;;;;64.45;26.38;;;3.80;99.90;;;;;;5047405;28;20376;-53
2021/12/04 03:47:22;;;;;;;57.10;25.27;;;3.80;99.90;;;;;;5047591;28;20090;-50
2021/12/04 03:49:48;;;;;;;68.68;26.15;;;3.80;99.90;;;;;;5047057;28;20052;-53
2021/12/04 03:52:14;;;;;;;65.00;25.27;;;3.80;99.90;;;;;;5047558;28;20045;-50
2021/12/04 03:54:41;;;;;;;61.13;24.58;;;3.50;99.90;;;;;;5047203;28;20037;-53
2021/12/04 03:57:07;;;;;;;68.32;24.95;;;3.80;99.90;;;;;;5047515;28;20049;-52
2021/12/04 03:59:35;;;;;;;57.65;22.88;;;3.80;99.90;;;;;;5047329;28;20495;-53
2021/12/04 04:02:02;;;;;;;64.30;23.33;;;3.80;99.90;;;;;;5066836;28;20143;-50
2021/12/04 04:04:27;;;;;;;72.07;23.63;;;4.70;99.90;;;;;;5067271;28;20041;-50
2021/12/04 04:06:53;;;;;;;55.63;22.35;;;3.50;99.90;;;;;;5069474;28;20060;-52
2021/12/04 04:09:19;;;;;;;61.33;23.50;;;3.80;99.90;;;;;;5070773;28;20068;-50
2021/12/04 04:11:47;;;;;;;61.97;22.85;;;3.70;99.90;;;;;;5070557;28;20517;-50
2021/12/04 04:14:13;;;;;;;66.30;22.38;;;3.80;99.90;;;;;;5070597;28;20110;-50
2021/12/04 04:16:40;;;;;;;75.05;24.30;;;3.90;99.90;;;;;;5070294;28;20036;-54
2021/12/04 04:19:07;;;;;;;57.58;21.30;;;3.70;99.90;;;;;;5071163;28;20051;-50
2021/12/04 04:21:39;;;;;;;61.88;23.02;;;3.80;99.90;;;;;;5070873;28;20079;-53
2021/12/04 04:24:12;;;;;;;62.20;22.15;;;3.70;99.90;;;;;;5070532;28;20554;-51
2021/12/04 04:26:40;;;;;;;83.50;23.08;;;3.80;99.90;;;;;;5070515;28;20456;-54
2021/12/04 04:29:06;;;;;;;74.40;23.55;;;3.80;99.90;;;;;;5070429;28;20094;-51
2021/12/04 04:31:34;;;;;;;85.22;23.77;;;3.50;99.90;;;;;;5070860;28;20063;-53
2021/12/04 04:34:03;;;;;;;73.00;23.98;;;3.80;99.90;;;;;;5070294;28;20098;-51
2021/12/04 04:39:20;;;;;;;69.25;23.23;;;3.80;99.90;;;;;;5070064;28;20076;-53
2021/12/04 05:12:03;;;;;;;94.32;24.23;;;3.60;99.90;;;;;;5069321;28;20161;-53
2021/12/04 05:14:29;;;;;;;112.85;25.98;;;3.80;99.90;;;;;;5069419;28;20052;-53
2021/12/04 05:17:04;;;;;;;95.20;25.55;;;3.70;99.90;;;;;;5068543;28;20431;-53
2021/12/04 05:22:06;;;;;;;95.47;25.88;;;3.70;99.90;;;;;;5069318;28;20450;-54
2021/12/04 05:24:33;;;;;;;102.95;24.88;;;3.70;99.90;;;;;;5069092;28;20064;-53
2021/12/04 05:26:58;;;;;;;110.10;27.20;;;3.70;99.90;;;;;;5068871;28;20123;-54
2021/12/04 05:29:24;;;;;;;104.28;25.48;;;3.70;99.90;;;;;;5069511;28;20140;-53
2021/12/04 05:31:50;;;;;;;109.55;27.00;;;3.70;99.90;;;;;;5069053;28;20119;-53
2021/12/04 05:34:16;;;;;;;108.40;26.58;;;3.70;99.90;;;;;;5068992;28;20048;-53
2021/12/04 05:36:42;;;;;;;99.72;25.33;;;3.70;99.90;;;;;;5068852;28;20438;-53
2021/12/04 05:39:08;;;;;;;145.98;27.42;;;2.80;99.90;;;;;;5069395;28;20151;-54
2021/12/04 05:41:34;;;;;;;114.05;27.00;;;3.70;99.90;;;;;;5069394;28;20429;-50
2021/12/04 05:44:04;;;;;;;105.20;26.42;;;3.70;99.90;;;;;;5069303;28;20036;-53
2021/12/04 05:46:38;;;;;;;106.57;27.35;;;3.70;99.90;;;;;;5068957;28;20044;-53
2021/12/04 05:49:18;;;;;;;107.85;26.15;;;3.60;99.90;;;;;;5069157;28;20044;-53
2021/12/04 05:56:57;;;;;;;140.32;30.30;;;3.50;99.90;;;;;;5068137;28;20469;-53
2021/12/04 05:59:23;;;;;;;144.80;30.27;;;3.70;99.90;;;;;;5068724;28;20055;-51
2021/12/04 06:01:49;;;;;;;128.95;29.75;;;3.70;99.90;;;;;;5066847;28;20544;-51
2021/12/04 06:04:15;;;;;;;101.13;27.77;;;3.50;99.90;;;;;;5068807;28;20478;-52
2021/12/04 06:06:43;;;;;;;108.45;27.20;;;3.90;99.90;;;;;;5068679;28;20092;-53
2021/12/04 06:09:09;;;;;;;106.97;26.48;;;3.70;99.90;;;;;;5068448;28;20052;-54
2021/12/04 06:11:35;;;;;;;119.07;28.02;;;3.30;99.90;;;;;;5068491;28;20111;-52
2021/12/04 06:14:02;;;;;;;175.82;31.17;;;3.70;99.90;;;;;;5068429;28;20571;-50
2021/12/04 06:16:28;;;;;;;138.30;28.45;;;3.70;99.90;;;;;;5068324;28;20078;-53
2021/12/04 06:18:54;;;;;;;88.35;26.65;;;3.70;99.90;;;;;;5068202;28;20040;-51
2021/12/04 06:24:06;;;;;;;117.22;26.70;;;3.70;99.90;;;;;;5068133;28;20148;-51
2021/12/04 06:26:33;;;;;;;114.25;29.17;;;3.70;99.90;;;;;;5068210;28;20052;-51
2021/12/04 06:29:00;;;;;;;130.80;27.63;;;3.50;99.90;;;;;;5067989;28;20048;-53
2021/12/04 06:31:26;;;;;;;113.85;28.00;;;3.70;99.90;;;;;;5068471;28;20044;-51
2021/12/04 06:33:52;;;;;;;117.35;28.02;;;3.70;99.90;;;;;;5067996;28;20049;-52
2021/12/04 06:36:21;;;;;;;130.50;28.20;;;3.70;99.90;;;;;;5068077;28;20044;-50
2021/12/04 06:38:47;;;;;;;152.65;29.40;;;3.60;99.90;;;;;;5068238;28;20115;-53
2021/12/04 06:41:13;;;;;;;153.32;30.50;;;3.70;99.90;;;;;;5068129;28;20450;-53
2021/12/04 06:43:45;;;;;;;132.05;30.65;;;3.70;99.90;;;;;;5068184;28;20071;-53
2021/12/04 06:46:11;;;;;;;144.18;37.75;;;3.50;99.90;;;;;;5067843;28;20059;-54
2021/12/04 06:48:49;;;;;;;176.15;40.50;;;3.70;99.90;;;;;;5067855;28;20486;-53
2021/12/04 06:56:11;;;;;;;186.70;36.85;;;3.70;99.90;;;;;;5067575;28;20135;-53
2021/12/04 06:58:37;;;;;;;114.03;31.80;;;3.70;99.90;;;;;;5067973;28;20542;-51
2021/12/04 07:01:06;;;;;;;132.38;31.35;;;3.70;99.90;;;;;;5065967;28;20052;-53
2021/12/04 07:03:32;;;;;;;123.72;31.77;;;3.70;99.90;;;;;;5067585;28;20494;-53
2021/12/04 07:05:57;;;;;;;122.40;30.33;;;3.70;99.90;;;;;;5067178;28;20056;-53
2021/12/04 07:08:23;;;;;;;113.82;29.17;;;3.70;99.90;;;;;;5067591;28;20562;-53
2021/12/04 07:10:49;;;;;;;132.98;28.83;;;3.70;99.90;;;;;;5067204;28;20040;-53
2021/12/04 07:13:14;;;;;;;143.63;30.33;;;4.80;99.90;;;;;;5048529;28;20151;-53
2021/12/04 07:15:44;;;;;;;109.18;27.55;;;3.70;99.90;;;;;;5066967;28;20063;-50
2021/12/04 07:18:10;;;;;;;100.57;27.65;;;3.70;99.90;;;;;;5064472;28;20116;-54
2021/12/04 07:20:36;;;;;;;91.90;27.08;;;3.70;99.90;;;;;;5067326;28;20029;-54
2021/12/04 07:23:02;;;;;;;100.60;26.45;;;3.70;99.90;;;;;;5066684;28;20506;-51
2021/12/04 07:25:28;;;;;;;86.10;25.63;;;4.70;99.90;;;;;;5067397;28;20052;-52
2021/12/04 07:27:54;;;;;;;94.07;26.83;;;3.80;99.90;;;;;;5067175;28;20036;-53
2021/12/04 07:30:21;;;;;;;144.40;29.05;;;3.70;99.90;;;;;;5065740;28;20040;-51
2021/12/04 07:32:47;;;;;;;131.93;29.45;;;3.80;99.90;;;;;;5048708;28;20079;-54
2021/12/04 07:35:14;;;;;;;91.55;25.77;;;4.20;99.90;;;;;;5066834;28;20513;-53
2021/12/04 07:37:39;;;;;;;91.60;25.25;;;3.70;99.90;;;;;;5067061;28;20032;-53
2021/12/04 07:40:06;;;;;;;116.82;27.30;;;3.70;99.90;;;;;;5066816;28;20117;-54
2021/12/04 07:42:31;;;;;;;102.18;25.00;;;3.80;99.90;;;;;;5070548;28;20051;-53
2021/12/04 07:44:59;;;;;;;97.45;24.58;;;3.70;99.90;;;;;;5070462;28;20244;-54
2021/12/04 07:47:25;;;;;;;85.90;24.70;;;3.60;99.90;;;;;;5070431;28;20045;-52
2021/12/04 07:49:51;;;;;;;83.55;22.75;;;3.70;99.90;;;;;;5070150;28;20421;-52
2021/12/04 07:52:17;;;;;;;84.35;23.38;;;3.80;99.90;;;;;;5069925;28;20037;-51
2021/12/04 07:54:43;;;;;;;88.50;23.23;;;3.80;99.90;;;;;;5070391;28;20047;-52
2021/12/04 07:57:09;;;;;;;65.38;21.73;;;3.80;99.90;;;;;;5070143;28;20033;-53
2021/12/04 07:59:35;;;;;;;60.97;19.60;;;3.80;99.90;;;;;;5069041;28;20049;-51
2021/12/04 08:02:01;;;;;;;55.53;20.67;;;3.80;99.90;;;;;;5069709;28;20051;-50
2021/12/04 08:04:27;;;;;;;60.33;20.90;;;3.80;99.90;;;;;;5070849;28;20032;-52
2021/12/04 08:06:53;;;;;;;72.35;21.98;;;3.80;99.90;;;;;;5070333;28;20052;-53
2021/12/04 08:09:20;;;;;;;58.17;21.95;;;3.80;99.90;;;;;;5070166;28;20044;-51
2021/12/04 08:11:49;;;;;;;63.58;22.08;;;3.80;99.90;;;;;;5052365;28;20116;-54
2021/12/04 08:14:15;;;;;;;70.10;23.13;;;3.80;99.90;;;;;;5070198;28;20048;-52
2021/12/04 08:16:41;;;;;;;74.15;22.95;;;3.80;99.90;;;;;;5070728;28;20367;-54
2021/12/04 08:19:06;;;;;;;66.20;23.13;;;3.80;99.90;;;;;;5070635;28;20122;-54
2021/12/04 08:21:32;;;;;;;82.10;23.23;;;4.80;99.90;;;;;;5070971;28;20454;-53
2021/12/04 08:23:58;;;;;;;78.60;25.35;;;3.70;99.90;;;;;;5052560;28;20060;-54
2021/12/04 08:26:24;;;;;;;59.17;22.13;;;3.80;99.90;;;;;;5070421;28;20056;-54
2021/12/04 08:28:51;;;;;;;87.32;25.77;;;3.80;99.90;;;;;;5070784;28;20040;-54
2021/12/04 08:31:18;;;;;;;59.55;23.67;;;3.90;99.90;;;;;;5070005;28;20177;-50
2021/12/04 08:33:43;;;;;;;76.63;24.10;;;3.90;99.90;;;;;;5070019;28;20132;-49
2021/12/04 08:36:10;;;;;;;67.55;24.15;;;4.60;99.90;;;;;;5069527;28;20501;-52
2021/12/04 08:38:37;;;;;;;77.00;23.63;;;3.90;99.90;;;;;;5070055;28;20047;-52
2021/12/04 08:41:03;;;;;;;64.45;23.83;;;3.90;99.90;;;;;;5069664;28;20037;-51
2021/12/04 08:43:29;;;;;;;60.63;22.60;;;4.00;99.90;;;;;;5069911;28;20048;-53
2021/12/04 08:45:59;;;;;;;60.08;25.58;;;4.90;99.90;;;;;;5069870;28;20127;-49
2021/12/04 08:48:26;;;;;;;66.70;23.55;;;3.90;99.90;;;;;;5051641;28;20051;-49
2021/12/04 08:50:51;;;;;;;68.18;25.45;;;3.90;99.90;;;;;;5069797;28;20068;-50
2021/12/04 08:53:17;;;;;;;63.53;23.60;;;3.70;99.90;;;;;;5069646;28;20439;-49
2021/12/04 08:55:43;;;;;;;61.55;23.40;;;4.60;99.90;;;;;;5068124;28;20087;-49
2021/12/04 08:58:10;;;;;;;70.18;24.40;;;4.10;99.90;;;;;;5051088;28;20043;-53
2021/12/04 09:00:49;;;;;;;85.03;25.25;;;4.10;99.90;;;;;;5069244;28;20039;-51
2021/12/04 09:03:22;;;;;;;65.35;23.48;;;4.20;99.90;;;;;;5068982;28;20040;-48
2021/12/04 09:05:50;;;;;;;84.43;26.05;;;4.30;99.90;;;;;;5069309;28;20049;-51
2021/12/04 09:08:17;;;;;;;65.72;21.88;;;4.30;99.90;;;;;;5069126;28;20151;-50
2021/12/04 09:10:46;;;;;;;63.90;22.85;;;4.00;99.90;;;;;;5070011;28;20052;-51
2021/12/04 09:13:12;;;;;;;57.45;20.92;;;4.40;99.90;;;;;;5069296;28;20041;-53
2021/12/04 09:15:40;;;;;;;64.47;23.20;;;4.40;99.90;;;;;;5069497;28;20052;-52
2021/12/04 09:18:06;;;;;;;60.25;21.30;;;4.40;99.90;;;;;;5069295;28;20058;-54
2021/12/04 09:20:33;;;;;;;54.58;19.83;;;4.50;99.90;;;;;;5069311;28;20029;-52
2021/12/04 09:23:00;;;;;;;50.83;20.02;;;4.50;99.90;;;;;;5068780;28;20055;-50
2021/12/04 09:25:27;;;;;;;46.60;18.80;;;4.50;99.90;;;;;;5067420;28;20056;-52
2021/12/04 09:30:44;;;;;;;55.05;19.33;;;4.60;99.90;;;;;;5068562;28;20040;-50
2021/12/04 10:06:01;;;;;;;47.33;19.98;;;4.80;99.90;;;;;;5067704;28;20607;-49
2021/12/04 10:33:15;;;;;;;51.70;21.77;;;4.90;99.90;;;;;;5068093;28;20048;-50
2021/12/04 10:35:41;;;;;;;50.00;20.48;;;6.10;99.90;;;;;;5068094;28;20045;-50
2021/12/04 10:38:12;;;;;;;49.15;20.98;;;5.00;99.90;;;;;;5067324;28;20044;-51
2021/12/04 10:40:42;;;;;;;57.13;22.63;;;5.90;99.90;;;;;;5067640;28;20087;-50
2021/12/04 10:43:16;;;;;;;57.53;23.45;;;5.60;99.90;;;;;;5044358;28;20087;-51
2021/12/04 10:45:51;;;;;;;66.22;23.25;;;5.00;99.90;;;;;;5067389;28;20490;-49
2021/12/04 10:48:21;;;;;;;68.68;24.65;;;5.00;99.90;;;;;;5067111;28;20456;-50
2021/12/04 10:51:01;;;;;;;72.00;25.65;;;5.00;99.90;;;;;;5065048;28;20501;-49
2021/12/04 10:53:33;;;;;;;67.78;24.52;;;5.00;99.90;;;;;;5064438;28;20047;-51
2021/12/04 11:04:28;;;;;;;57.55;23.48;;;5.00;99.90;;;;;;5067517;28;20080;-51
2021/12/04 11:45:13;;;;;;;66.93;25.65;;;5.00;99.90;;;;;;5071952;28;20080;-43
2021/12/04 11:47:42;;;;;;;53.67;22.42;;;4.90;99.90;;;;;;5071316;28;20040;-45
2021/12/04 11:50:30;;;;;;;65.35;25.08;;;4.90;99.90;;;;;;5071280;28;20059;-44
2021/12/04 11:52:59;;;;;;;67.93;25.90;;;4.90;99.90;;;;;;5071142;28;20525;-43
2021/12/04 11:55:29;;;;;;;55.22;25.90;;;4.90;99.90;;;;;;5070726;28;20661;-47
2021/12/04 11:57:55;;;;;;;55.13;24.63;;;4.90;99.90;;;;;;5053135;28;20040;-44
2021/12/04 12:00:28;;;;;;;55.83;24.85;;;4.90;99.90;;;;;;5071105;28;20024;-59
2021/12/04 12:03:21;;;;;;;56.60;24.75;;;4.50;99.90;;;;;;5052623;28;20080;-60
2021/12/04 12:05:53;;;;;;;50.03;24.75;;;4.80;99.90;;;;;;5049898;28;20063;-62
2021/12/04 12:08:47;;;;;;;49.03;23.90;;;4.80;99.90;;;;;;5060236;28;20028;-59
2021/12/04 12:11:27;;;;;;;47.97;24.50;;;4.90;99.90;;;;;;5049263;28;20052;-56
2021/12/04 12:13:59;;;;;;;55.13;25.27;;;4.80;99.90;;;;;;5070557;28;20087;-51
2021/12/04 12:16:32;;;;;;;58.17;27.08;;;5.30;99.90;;;;;;5052286;28;20052;-57
2021/12/04 12:19:03;;;;;;;66.50;27.08;;;4.80;99.90;;;;;;5070486;28;20568;-58
2021/12/04 12:38:53;;;;;;;59.03;29.73;;;5.10;99.90;;;;;;5070813;28;20040;-56
2021/12/04 12:41:30;;;;;;;67.68;31.55;;;5.10;99.90;;;;;;5052759;28;20052;-57
2021/12/04 12:44:17;;;;;;;90.15;36.35;;;5.10;99.90;;;;;;5052523;28;20075;-58
2021/12/04 12:46:46;;;;;;;81.72;35.67;;;5.00;99.90;;;;;;5070621;28;20380;-57
2021/12/04 12:49:37;;;;;;;85.40;36.60;;;4.70;99.90;;;;;;5052504;28;20056;-58
2021/12/04 12:52:18;;;;;;;91.63;38.38;;;5.00;99.90;;;;;;5070968;28;20040;-50
2021/12/04 12:54:43;;;;;;;80.82;35.83;;;4.90;99.90;;;;;;5052173;28;20160;-51
2021/12/04 12:57:22;;;;;;;95.25;36.97;;;4.90;99.90;;;;;;5070543;28;20040;-57
2021/12/04 13:14:07;;;;;;;88.60;34.60;;;4.90;99.90;;;;;;5070315;28;20502;-56
2021/12/04 13:16:32;;;;;;;94.25;35.53;;;6.10;99.90;;;;;;5069653;28;20066;-59
2021/12/04 13:19:03;;;;;;;88.25;33.35;;;4.50;99.90;;;;;;5069160;28;20441;-59
2021/12/04 13:21:34;;;;;;;86.53;33.95;;;4.90;99.90;;;;;;5069449;28;20059;-57
2021/12/04 13:24:00;;;;;;;82.00;34.90;;;4.70;99.90;;;;;;5068910;28;20118;-46
2021/12/04 13:26:35;;;;;;;79.38;33.20;;;4.90;99.90;;;;;;5069629;28;20052;-46
2021/12/04 13:29:03;;;;;;;89.97;35.35;;;4.80;99.90;;;;;;5069137;28;20398;-46
2021/12/04 13:31:29;;;;;;;91.60;35.40;;;4.90;99.90;;;;;;5069668;28;20067;-47
2021/12/04 13:33:56;;;;;;;83.47;32.78;;;6.00;99.90;;;;;;5069477;28;20049;-45
2021/12/04 13:36:28;;;;;;;84.38;34.45;;;4.80;99.90;;;;;;5069407;28;20522;-45
2021/12/04 13:39:00;;;;;;;108.43;34.38;;;5.00;99.90;;;;;;5068515;28;20032;-46
2021/12/04 13:41:28;;;;;;;127.85;35.05;;;4.90;99.90;;;;;;5069637;28;20040;-46
2021/12/04 13:43:56;;;;;;;90.18;35.97;;;5.00;99.90;;;;;;5069427;28;20809;-45
2021/12/04 13:46:23;;;;;;;100.88;35.63;;;5.00;99.90;;;;;;5069347;28;20048;-48
2021/12/04 13:48:49;;;;;;;84.57;33.17;;;4.90;99.90;;;;;;5069314;28;20052;-45
2021/12/04 13:51:16;;;;;;;85.35;32.78;;;5.00;99.90;;;;;;5069246;28;20080;-45
2021/12/04 13:53:45;;;;;;;85.40;33.58;;;4.90;99.90;;;;;;5068977;28;20047;-46
2021/12/04 13:56:16;;;;;;;74.15;30.77;;;4.90;99.90;;;;;;5069756;28;20175;-47
2021/12/04 13:58:56;;;;;;;81.75;32.75;;;4.80;99.90;;;;;;5069107;28;20032;-46
2021/12/04 14:01:23;;;;;;;75.03;33.28;;;5.00;99.90;;;;;;5067993;28;20060;-46
2021/12/04 14:03:57;;;;;;;87.15;33.75;;;4.90;99.90;;;;;;5068830;28;20121;-45
2021/12/04 14:06:23;;;;;;;83.88;33.08;;;4.90;99.90;;;;;;5068744;28;20044;-46
2021/12/04 14:09:16;;;;;;;88.70;32.90;;;4.70;99.90;;;;;;5068513;28;20034;-46
2021/12/04 14:11:42;;;;;;;97.95;34.90;;;4.90;99.90;;;;;;5066486;28;20063;-46
2021/12/04 14:14:17;;;;;;;81.30;32.83;;;4.90;99.90;;;;;;5068962;28;20090;-46
2021/12/04 14:16:45;;;;;;;82.88;32.25;;;4.90;99.90;;;;;;5068923;28;20063;-46
2021/12/04 14:19:21;;;;;;;98.85;35.70;;;4.90;99.90;;;;;;5069424;28;20040;-46
2021/12/04 14:22:03;;;;;;;104.72;37.33;;;4.90;99.90;;;;;;5068867;28;20040;-47
2021/12/04 14:24:51;;;;;;;140.45;53.70;;;4.80;99.90;;;;;;5069185;28;20072;-45
2021/12/04 14:27:23;;;;;;;116.85;38.15;;;4.80;99.90;;;;;;5059433;28;20136;-55
2021/12/04 14:30:01;;;;;;;150.40;49.05;;;4.80;99.90;;;;;;5062553;28;20796;-53
2021/12/04 14:32:33;;;;;;;132.77;40.47;;;4.80;99.90;;;;;;5065783;28;20036;-54
2021/12/04 14:35:01;;;;;;;;;;;4.70;99.90;;;;;;5068210;28;20122;-56
2021/12/04 14:37:27;;;;;;;153.68;44.63;;;4.80;99.90;;;;;;5067889;28;20370;-57
2021/12/04 14:39:54;;;;;;;161.25;45.03;;;4.70;99.90;;;;;;5067561;28;20044;-58
2021/12/04 14:42:22;;;;;;;163.73;48.30;;;4.70;99.90;;;;;;5067790;28;20046;-58
2021/12/04 14:44:57;;;;;;;163.38;46.10;;;4.70;99.90;;;;;;5067798;28;20085;-57
2021/12/04 14:47:28;;;;;;;146.65;43.10;;;4.70;99.90;;;;;;5049820;28;20129;-55
2021/12/04 14:49:59;;;;;;;145.40;41.22;;;4.60;99.90;;;;;;5067622;28;20044;-56
2021/12/04 14:52:29;;;;;;;151.57;43.55;;;4.60;99.90;;;;;;5068126;28;20037;-56
2021/12/04 14:54:55;;;;;;;137.68;40.92;;;4.40;99.90;;;;;;5067947;28;20033;-57
2021/12/04 14:57:27;;;;;;;156.27;42.28;;;5.60;99.90;;;;;;5068021;28;20486;-56
2021/12/04 15:00:05;;;;;;;166.20;42.83;;;4.60;99.90;;;;;;5066717;28;20032;-56
2021/12/04 15:02:31;;;;;;;169.32;44.72;;;4.50;99.90;;;;;;5067952;28;20040;-56
2021/12/04 15:04:57;;;;;;;179.52;44.13;;;5.10;99.90;;;;;;5067403;28;20047;-55
2021/12/04 15:07:27;;;;;;;211.35;46.58;;;4.60;99.90;;;;;;5067631;28;20040;-56
2021/12/04 15:09:53;;;;;;;186.82;45.05;;;5.40;99.90;;;;;;5072721;28;20040;-56
2021/12/04 15:12:32;;;;;;;195.25;44.33;;;4.60;99.90;;;;;;5076257;28;20039;-57
2021/12/04 15:15:02;;;;;;;179.25;45.97;;;4.60;99.90;;;;;;5049555;28;20407;-56
2021/12/04 15:17:29;;;;;;;197.73;46.92;;;4.60;99.90;;;;;;5067885;28;20044;-48
2021/12/04 15:20:09;;;;;;;226.63;50.78;;;4.50;99.90;;;;;;5068143;28;20087;-53
2021/12/04 15:22:41;;;;;;;257.02;59.67;;;4.50;99.90;;;;;;5068506;28;20045;-56
2021/12/04 15:25:17;;;;;;;271.67;56.15;;;5.50;99.90;;;;;;5067715;28;20052;-50
2021/12/04 15:27:43;;;;;;;208.48;54.58;;;4.50;99.90;;;;;;5046605;28;20406;-48
2021/12/04 15:30:15;;;;;;;208.57;50.95;;;4.50;99.90;;;;;;5067755;28;20047;-45
2021/12/04 15:32:42;;;;;;;178.30;47.22;;;4.50;99.90;;;;;;5068050;28;20052;-50
2021/12/04 15:35:34;;;;;;;324.00;55.97;;;4.60;99.90;;;;;;5031795;28;20627;-46
2021/12/04 15:38:08;;;;;;;268.48;53.80;;;4.50;99.90;;;;;;5067540;28;20060;-46
2021/12/04 15:54:08;;;;;;;239.48;53.35;;;4.50;99.90;;;;;;5069502;28;20053;-50
2021/12/04 15:56:44;;;;;;;251.73;53.72;;;4.50;99.90;;;;;;5069615;28;20080;-48
2021/12/04 15:59:30;;;;;;;197.68;50.92;;;4.50;99.90;;;;;;5052552;28;20025;-48
2021/12/04 16:02:11;;;;;;;280.40;53.15;;;4.50;99.90;;;;;;5066687;28;20043;-59
2021/12/04 16:04:37;;;;;;;226.88;51.80;;;4.50;99.90;;;;;;5053641;28;20048;-45
2021/12/04 16:07:03;;;;;;;242.45;53.53;;;4.40;99.90;;;;;;5071709;28;20087;-45
2021/12/04 16:09:33;;;;;;;239.60;54.75;;;4.40;99.90;;;;;;5071982;28;20044;-45
2021/12/04 16:12:22;;;;;;;242.15;53.80;;;4.50;99.90;;;;;;5071619;28;20089;-45
2021/12/04 16:14:54;;;;;;;209.80;52.05;;;5.40;99.90;;;;;;5071974;28;20834;-46
2021/12/04 16:17:19;;;;;;;206.68;51.13;;;4.30;99.90;;;;;;5072059;28;20378;-45
2021/12/04 16:19:49;;;;;;;225.38;53.97;;;4.60;99.90;;;;;;5072001;28;20044;-46
2021/12/04 16:22:17;;;;;;;200.30;51.70;;;4.40;99.90;;;;;;5071621;28;20045;-44
2021/12/04 16:24:47;;;;;;;227.30;54.13;;;5.40;99.90;;;;;;5071114;28;20064;-45
2021/12/04 16:27:24;;;;;;;209.00;51.90;;;4.40;99.90;;;;;;5071145;28;20049;-46